createdAt,value
2023-05-10T00:00:32.308Z,100797.91
2023-05-10T00:03:33.976Z,100800.03
2023-05-10T00:06:35.906Z,100786.41
2023-05-10T00:09:37.465Z,100790.06
2023-05-10T00:12:39.030Z,100789.97
2023-05-10T00:15:40.685Z,100803.06
2023-05-10T00:18:42.318Z,100799.16
2023-05-10T00:21:43.863Z,100798.16
2023-05-10T00:24:45.473Z,100802.06
2023-05-10T00:27:47.050Z,100792.41
2023-05-10T00:30:48.814Z,100782.59
2023-05-10T00:33:50.438Z,100786.19
2023-05-10T00:36:51.969Z,100787.47
2023-05-10T00:39:53.657Z,100786.28
2023-05-10T00:42:55.262Z,100790.31
2023-05-10T00:45:57.024Z,100790.78
2023-05-10T00:48:58.982Z,100786.09
2023-05-10T00:52:00.790Z,100778.34
2023-05-10T00:55:02.462Z,100771.34
2023-05-10T00:58:04.429Z,100769.41
2023-05-10T01:01:06.998Z,100774.56
2023-05-10T01:04:09.763Z,100761.63
2023-05-10T01:07:11.558Z,100773.94
2023-05-10T01:10:13.417Z,100767.47
2023-05-10T01:13:28.396Z,100767.56
2023-05-10T01:16:42.890Z,100767.69
2023-05-10T01:19:44.560Z,100771.50
2023-05-10T01:22:58.592Z,100776.03
2023-05-10T01:26:21.716Z,100774.56
2023-05-10T01:29:35.879Z,100776.00
2023-05-10T01:33:02.682Z,100780.19
2023-05-10T01:36:14.162Z,100772.41
2023-05-10T01:39:22.367Z,100763.91
2023-05-10T01:42:29.925Z,100778.38
2023-05-10T01:46:11.917Z,100779.34
2023-05-10T01:49:26.961Z,100762.25
2023-05-10T01:52:33.888Z,100766.03
2023-05-10T01:55:49.894Z,100768.88
2023-05-10T01:58:52.870Z,100758.50
2023-05-10T02:01:56.677Z,100758.94
2023-05-10T02:05:00.006Z,100762.63
2023-05-10T02:08:02.797Z,100731.00
2023-05-10T02:11:06.336Z,100759.31
2023-05-10T02:14:10.515Z,100746.63
2023-05-10T02:17:12.933Z,100755.25
2023-05-10T02:20:17.220Z,100758.59
2023-05-10T02:23:20.561Z,100753.13
2023-05-10T02:26:24.741Z,100753.13
2023-05-10T02:29:28.271Z,100756.69
2023-05-10T02:32:31.098Z,100753.13
2023-05-10T02:35:34.502Z,100756.19
2023-05-10T02:38:37.677Z,100749.84
2023-05-10T02:41:42.408Z,100750.88
2023-05-10T02:44:46.554Z,100739.13
2023-05-10T02:47:49.226Z,100750.47
2023-05-10T02:50:53.354Z,100735.59
2023-05-10T02:53:57.084Z,100747.78
2023-05-10T02:57:03.957Z,100746.38
2023-05-10T03:00:06.436Z,100739.47
2023-05-10T03:03:08.715Z,100748.47
2023-05-10T03:06:10.678Z,100754.00
2023-05-10T03:09:16.273Z,100749.69
2023-05-10T03:12:38.723Z,100747.81
2023-05-10T03:15:52.428Z,100754.41
2023-05-10T03:19:17.400Z,100744.47
2023-05-10T03:22:27.588Z,100746.63
2023-05-10T03:25:30.903Z,100738.97
2023-05-10T03:28:34.357Z,100749.38
2023-05-10T03:31:35.987Z,100744.34
2023-05-10T03:34:42.635Z,100735.84
2023-05-10T03:37:44.273Z,100746.84
2023-05-10T03:40:45.839Z,100746.34
2023-05-10T03:43:47.395Z,100744.06
2023-05-10T03:46:49.106Z,100747.31
2023-05-10T03:49:51.017Z,100736.50
2023-05-10T03:52:54.639Z,100750.75
2023-05-10T03:55:56.473Z,100749.47
2023-05-10T03:58:58.029Z,100742.81
2023-05-10T04:01:59.630Z,100736.91
2023-05-10T04:05:01.528Z,100738.22
2023-05-10T04:08:03.882Z,100749.13
2023-05-10T04:11:13.672Z,100738.56
2023-05-10T04:14:17.459Z,100737.84
2023-05-10T04:17:19.065Z,100742.06
2023-05-10T04:20:20.752Z,100747.25
2023-05-10T04:23:22.563Z,100755.75
2023-05-10T04:26:26.053Z,100754.56
2023-05-10T04:29:28.132Z,100754.94
2023-05-10T04:32:30.347Z,100756.13
2023-05-10T04:35:32.018Z,100757.63
2023-05-10T04:38:33.664Z,100750.16
2023-05-10T04:41:35.606Z,100742.31
2023-05-10T04:44:37.382Z,100730.03
2023-05-10T04:47:39.247Z,100742.97
2023-05-10T04:50:41.187Z,100750.75
2023-05-10T04:53:46.453Z,100752.22
2023-05-10T04:56:52.807Z,100750.78
2023-05-10T04:59:54.377Z,100757.28
2023-05-10T05:02:56.028Z,100751.63
2023-05-10T05:05:57.710Z,100762.25
2023-05-10T05:08:59.336Z,100761.56
2023-05-10T05:12:01.139Z,100756.44
2023-05-10T05:15:03.736Z,100741.06
2023-05-10T05:18:05.437Z,100756.81
2023-05-10T05:21:20.522Z,100762.50
2023-05-10T05:24:22.101Z,100766.50
2023-05-10T05:27:25.352Z,100750.38
2023-05-10T05:30:26.912Z,100759.66
2023-05-10T05:33:28.571Z,100765.91
2023-05-10T05:36:30.163Z,100757.09
2023-05-10T05:39:31.721Z,100773.66
2023-05-10T05:42:33.514Z,100767.09
2023-05-10T05:45:35.486Z,100749.03
2023-05-10T05:48:37.154Z,100770.63
2023-05-10T05:51:38.838Z,100767.88
2023-05-10T05:54:40.780Z,100785.41
2023-05-10T05:57:42.453Z,100776.94
2023-05-10T06:00:44.059Z,100780.91
2023-05-10T06:03:45.744Z,100781.84
2023-05-10T06:06:47.406Z,100785.69
2023-05-10T06:09:49.079Z,100780.94
2023-05-10T06:12:50.754Z,100786.75
2023-05-10T06:15:52.388Z,100781.00
2023-05-10T06:18:53.922Z,100780.00
2023-05-10T06:21:55.979Z,100780.31
2023-05-10T06:24:57.553Z,100790.53
2023-05-10T06:27:59.193Z,100788.25
2023-05-10T06:31:01.250Z,100787.22
2023-05-10T06:34:03.042Z,100787.41
2023-05-10T06:37:04.752Z,100787.16
2023-05-10T06:40:12.893Z,100796.53
2023-05-10T06:43:15.421Z,100795.00
2023-05-10T06:46:17.086Z,100787.19
2023-05-10T06:49:18.867Z,100795.94
2023-05-10T06:52:20.565Z,100798.09
2023-05-10T06:55:22.257Z,100784.56
2023-05-10T06:58:23.866Z,100793.41
2023-05-10T07:01:25.632Z,100785.75
2023-05-10T07:04:27.697Z,100794.81
2023-05-10T07:07:29.880Z,100798.19
2023-05-10T07:10:31.604Z,100791.88
2023-05-10T07:13:33.405Z,100783.56
2023-05-10T07:16:35.296Z,100784.88
2023-05-10T07:19:37.083Z,100797.19
2023-05-10T07:22:38.721Z,100804.19
2023-05-10T07:25:40.318Z,100781.59
2023-05-10T07:28:41.947Z,100788.69
2023-05-10T07:31:43.896Z,100783.22
2023-05-10T07:34:45.547Z,100777.28
2023-05-10T07:37:47.071Z,100781.56
2023-05-10T07:40:48.705Z,100778.53
2023-05-10T07:43:50.439Z,100788.00
2023-05-10T07:46:52.185Z,100784.22
2023-05-10T07:49:53.826Z,100774.44
2023-05-10T07:52:55.626Z,100777.28
2023-05-10T07:56:00.440Z,100779.50
2023-05-10T07:59:07.398Z,100789.25
2023-05-10T08:02:09.009Z,100786.56
2023-05-10T08:05:10.821Z,100772.91
2023-05-10T08:08:12.420Z,100764.63
2023-05-10T08:11:14.092Z,100767.19
2023-05-10T08:14:15.798Z,100772.66
2023-05-10T08:17:19.280Z,100785.38
2023-05-10T08:20:21.817Z,100781.38
2023-05-10T08:23:23.624Z,100773.00
2023-05-10T08:26:25.211Z,100769.31
2023-05-10T08:29:28.500Z,100767.88
2023-05-10T08:32:32.241Z,100757.66
2023-05-10T08:35:35.398Z,100766.72
2023-05-10T08:38:38.162Z,100768.44
2023-05-10T08:41:41.403Z,100765.97
2023-05-10T08:44:43.650Z,100764.34
2023-05-10T08:47:45.336Z,100765.25
2023-05-10T08:50:48.677Z,100764.50
2023-05-10T08:53:50.961Z,100762.38
2023-05-10T08:56:54.293Z,100753.19
2023-05-10T08:59:56.080Z,100759.31
2023-05-10T09:02:59.958Z,100765.97
2023-05-10T09:06:01.657Z,100755.81
2023-05-10T09:09:04.403Z,100762.91
2023-05-10T09:12:07.420Z,100754.09
2023-05-10T09:15:10.887Z,100763.94
2023-05-10T09:18:13.206Z,100754.47
2023-05-10T09:21:14.978Z,100749.63
2023-05-10T09:24:16.599Z,100761.28
2023-05-10T09:27:18.350Z,100753.63
2023-05-10T09:30:30.814Z,100746.53
2023-05-10T09:33:45.884Z,100747.09
2023-05-10T09:36:58.038Z,100753.94
2023-05-10T09:39:59.612Z,100732.97
2023-05-10T09:43:07.907Z,100756.25
2023-05-10T09:46:12.648Z,100751.78
2023-05-10T09:49:15.982Z,100729.53
2023-05-10T09:52:17.572Z,100756.56
2023-05-10T09:55:21.352Z,100746.94
2023-05-10T09:58:22.963Z,100753.03
2023-05-10T10:01:27.346Z,100731.47
2023-05-10T10:04:29.453Z,100736.63
2023-05-10T10:07:31.532Z,100729.50
2023-05-10T10:10:34.523Z,100728.97
2023-05-10T10:13:36.261Z,100737.06
2023-05-10T10:16:43.663Z,100735.03
2023-05-10T10:19:53.634Z,100728.81
2023-05-10T10:22:55.253Z,100721.63
2023-05-10T10:25:57.109Z,100726.59
2023-05-10T10:29:32.157Z,100703.31
2023-05-10T10:32:54.572Z,100711.41
2023-05-10T10:35:59.072Z,100721.38
2023-05-10T10:39:02.529Z,100702.16
2023-05-10T10:42:05.628Z,100694.38
2023-05-10T10:45:14.632Z,100698.81
2023-05-10T10:48:25.979Z,100711.56
2023-05-10T10:51:30.109Z,100709.75
2023-05-10T10:54:33.708Z,100695.72
2023-05-10T10:57:41.060Z,100692.84
2023-05-10T11:00:42.656Z,100678.53
2023-05-10T11:04:02.275Z,100685.09
2023-05-10T11:07:20.907Z,100670.16
2023-05-10T11:10:23.201Z,100668.31
2023-05-10T11:13:41.244Z,100669.97
2023-05-10T11:16:44.400Z,100669.13
2023-05-10T11:20:10.455Z,100667.66
2023-05-10T11:23:14.207Z,100665.41
2023-05-10T11:26:16.128Z,100671.34
2023-05-10T11:29:17.889Z,100656.31
2023-05-10T11:32:20.884Z,100649.03
2023-05-10T11:35:22.483Z,100663.34
2023-05-10T11:38:24.067Z,100649.28
2023-05-10T11:41:27.562Z,100655.31
2023-05-10T11:44:32.698Z,100656.09
2023-05-10T11:47:36.682Z,100643.97
2023-05-10T11:50:38.420Z,100642.56
2023-05-10T11:53:40.059Z,100652.44
2023-05-10T11:56:42.238Z,100647.81
2023-05-10T11:59:43.880Z,100636.41
2023-05-10T12:02:45.770Z,100640.69
2023-05-10T12:05:47.561Z,100640.66
2023-05-10T12:08:54.584Z,100646.09
2023-05-10T12:11:58.036Z,100629.22
2023-05-10T12:14:59.725Z,100639.03
2023-05-10T12:18:02.339Z,100645.41
2023-05-10T12:21:05.297Z,100636.16
2023-05-10T12:24:07.343Z,100632.00
2023-05-10T12:30:30.697Z,100628.81
2023-05-10T12:33:44.035Z,100617.34
2023-05-10T12:36:45.848Z,100614.44
2023-05-10T12:39:47.405Z,100614.66
2023-05-10T12:42:49.811Z,100611.88
2023-05-10T12:45:51.557Z,100613.97
2023-05-10T12:49:07.683Z,100605.59
2023-05-10T12:52:10.395Z,100602.25
2023-05-10T12:55:11.985Z,100603.06
2023-05-10T12:58:17.876Z,100580.44
2023-05-10T13:01:29.434Z,100591.84
2023-05-10T13:04:31.066Z,100593.28
2023-05-10T13:07:32.686Z,100584.72
2023-05-10T13:10:34.266Z,100574.31
2023-05-10T13:13:36.003Z,100556.00
2023-05-10T13:16:37.673Z,100568.28
2023-05-10T13:19:39.254Z,100564.88
2023-05-10T13:22:40.933Z,100573.31
2023-05-10T13:25:42.514Z,100556.66
2023-05-10T13:28:44.743Z,100560.91
2023-05-10T13:31:46.854Z,100530.56
2023-05-10T13:34:48.406Z,100548.63
2023-05-10T13:37:50.420Z,100541.13
2023-05-10T13:40:53.857Z,100541.69
2023-05-10T13:43:55.718Z,100531.69
2023-05-10T13:46:57.800Z,100537.88
2023-05-10T13:49:59.463Z,100541.13
2023-05-10T13:53:01.191Z,100523.97
2023-05-10T13:56:03.901Z,100522.97
2023-05-10T13:59:05.572Z,100539.00
2023-05-10T14:02:07.438Z,100520.44
2023-05-10T14:05:09.267Z,100509.19
2023-05-10T14:08:11.000Z,100526.69
2023-05-10T14:11:12.641Z,100526.53
2023-05-10T14:14:14.560Z,100523.81
2023-05-10T14:17:16.227Z,100521.28
2023-05-10T14:20:17.779Z,100526.19
2023-05-10T14:23:21.186Z,100520.44
2023-05-10T14:26:22.946Z,100510.53
2023-05-10T14:29:24.536Z,100513.72
2023-05-10T14:32:27.990Z,100513.72
2023-05-10T14:35:31.978Z,100520.84
2023-05-10T14:38:33.981Z,100518.19
2023-05-10T14:41:35.522Z,100505.56
2023-05-10T14:44:37.056Z,100501.06
2023-05-10T14:47:38.743Z,100507.03
2023-05-10T14:50:40.672Z,100514.38
2023-05-10T14:53:42.227Z,100515.06
2023-05-10T14:56:43.907Z,100510.13
2023-05-10T14:59:45.620Z,100506.66
2023-05-10T15:02:49.041Z,100505.91
2023-05-10T15:05:51.096Z,100503.84
2023-05-10T15:08:52.920Z,100513.09
2023-05-10T15:11:55.179Z,100514.44
2023-05-10T15:14:56.726Z,100513.84
2023-05-10T15:17:58.340Z,100496.03
2023-05-10T15:20:59.967Z,100496.16
2023-05-10T15:24:01.702Z,100487.03
2023-05-10T15:27:03.315Z,100489.50
2023-05-10T15:30:05.539Z,100486.72
2023-05-10T15:33:08.118Z,100484.75
2023-05-10T15:36:09.748Z,100490.63
2023-05-10T15:39:11.991Z,100475.56
2023-05-10T15:42:13.575Z,100487.56
2023-05-10T15:45:16.323Z,100486.41
2023-05-10T15:48:18.246Z,100490.41
2023-05-10T15:51:19.907Z,100490.28
2023-05-10T15:54:21.502Z,100483.78
2023-05-10T15:57:23.510Z,100489.66
2023-05-10T16:00:25.311Z,100492.16
2023-05-10T16:03:27.028Z,100496.31
2023-05-10T16:06:28.707Z,100495.56
2023-05-10T16:09:30.334Z,100500.38
2023-05-10T16:12:32.052Z,100506.09
2023-05-10T16:15:33.989Z,100498.22
2023-05-10T16:18:36.187Z,100486.56
2023-05-10T16:21:38.152Z,100483.63
2023-05-10T16:24:39.785Z,100504.50
2023-05-10T16:27:41.370Z,100502.09
2023-05-10T16:30:44.169Z,100498.03
2023-05-10T16:33:45.871Z,100489.44
2023-05-10T16:36:47.427Z,100507.84
2023-05-10T16:39:49.336Z,100487.47
2023-05-10T16:42:50.955Z,100512.44
2023-05-10T16:45:52.530Z,100504.38
2023-05-10T16:48:54.259Z,100509.22
2023-05-10T16:51:55.896Z,100507.84
2023-05-10T16:54:57.544Z,100508.56
2023-05-10T16:58:00.899Z,100508.03
2023-05-10T17:01:02.861Z,100507.25
2023-05-10T17:04:04.608Z,100512.69
2023-05-10T17:07:06.279Z,100519.25
2023-05-10T17:10:08.357Z,100515.41
2023-05-10T17:13:10.670Z,100518.09
2023-05-10T17:16:12.568Z,100520.00
2023-05-10T17:19:14.720Z,100520.31
2023-05-10T17:22:16.345Z,100526.31
2023-05-10T17:25:18.373Z,100532.88
2023-05-10T17:28:20.388Z,100522.09
2023-05-10T17:31:22.021Z,100535.47
2023-05-10T17:34:23.782Z,100534.34
2023-05-10T17:37:25.406Z,100531.50
2023-05-10T17:40:27.046Z,100536.03
2023-05-10T17:43:28.658Z,100546.41
2023-05-10T17:46:30.260Z,100530.09
2023-05-10T17:49:31.855Z,100539.81
2023-05-10T17:52:33.819Z,100538.56
2023-05-10T17:55:35.492Z,100549.66
2023-05-10T17:58:38.444Z,100549.59
2023-05-10T18:01:40.379Z,100551.91
2023-05-10T18:04:42.677Z,100554.34
2023-05-10T18:07:44.623Z,100554.06
2023-05-10T18:10:46.222Z,100561.50
2023-05-10T18:13:47.798Z,100558.84
2023-05-10T18:16:49.604Z,100569.19
2023-05-10T18:19:51.424Z,100573.22
2023-05-10T18:22:52.994Z,100553.97
2023-05-10T18:25:54.581Z,100566.28
2023-05-10T18:28:56.153Z,100571.63
2023-05-10T18:31:57.731Z,100568.66
2023-05-10T18:34:59.286Z,100567.97
2023-05-10T18:38:01.300Z,100581.94
2023-05-10T18:41:03.259Z,100576.78
2023-05-10T18:44:05.056Z,100587.94
2023-05-10T18:47:06.757Z,100584.75
2023-05-10T18:50:08.567Z,100581.94
2023-05-10T18:53:12.238Z,100590.75
2023-05-10T18:56:13.832Z,100594.91
2023-05-10T18:59:15.586Z,100603.22
2023-05-10T19:02:17.518Z,100596.91
2023-05-10T19:05:19.673Z,100597.22
2023-05-10T19:08:21.522Z,100590.91
2023-05-10T19:11:23.085Z,100605.88
2023-05-10T19:14:25.457Z,100604.72
2023-05-10T19:17:27.279Z,100613.69
2023-05-10T19:20:30.551Z,100613.88
2023-05-10T19:23:33.683Z,100600.22
2023-05-10T19:26:36.283Z,100616.53
2023-05-10T19:29:37.907Z,100609.00
2023-05-10T19:32:39.535Z,100618.94
2023-05-10T19:35:41.136Z,100596.94
2023-05-10T19:38:42.749Z,100622.19
2023-05-10T19:41:44.373Z,100625.03
2023-05-10T19:44:46.063Z,100631.00
2023-05-10T19:47:47.710Z,100627.31
2023-05-10T19:50:49.322Z,100625.09
2023-05-10T19:53:50.885Z,100626.44
2023-05-10T19:56:52.458Z,100616.38
2023-05-10T19:59:54.139Z,100621.19
2023-05-10T20:02:56.054Z,100613.13
2023-05-10T20:05:58.294Z,100624.44
2023-05-10T20:08:59.873Z,100622.47
2023-05-10T20:12:02.053Z,100604.31
2023-05-10T20:15:06.446Z,100633.41
2023-05-10T20:18:08.186Z,100614.06
2023-05-10T20:21:09.905Z,100629.53
2023-05-10T20:24:11.499Z,100633.13
2023-05-10T20:27:13.298Z,100630.59
2023-05-10T20:30:15.237Z,100628.91
2023-05-10T20:33:17.125Z,100634.53
2023-05-10T20:36:18.679Z,100626.22
2023-05-10T20:39:20.466Z,100620.06
2023-05-10T20:42:22.756Z,100624.81
2023-05-10T20:45:24.374Z,100613.50
2023-05-10T20:48:25.947Z,100635.84
2023-05-10T20:51:30.006Z,100637.69
2023-05-10T20:54:31.657Z,100639.53
2023-05-10T20:57:33.269Z,100627.50
2023-05-10T21:00:34.867Z,100639.03
2023-05-10T21:03:36.452Z,100625.38
2023-05-10T21:06:38.390Z,100630.06
2023-05-10T21:09:39.981Z,100640.22
2023-05-10T21:12:41.568Z,100638.91
2023-05-10T21:15:43.137Z,100640.25
2023-05-10T21:18:44.724Z,100638.41
2023-05-10T21:21:46.543Z,100634.94
2023-05-10T21:24:48.180Z,100631.94
2023-05-10T21:27:49.851Z,100634.41
2023-05-10T21:30:51.746Z,100638.38
2023-05-10T21:33:53.308Z,100636.38
2023-05-10T21:36:54.898Z,100639.84
2023-05-10T21:39:56.514Z,100641.00
2023-05-10T21:42:58.065Z,100632.44
2023-05-10T21:45:59.687Z,100633.19
2023-05-10T21:49:01.310Z,100645.75
2023-05-10T21:52:02.923Z,100644.16
2023-05-10T21:55:05.451Z,100637.66
2023-05-10T21:58:07.058Z,100648.59
2023-05-10T22:01:08.794Z,100649.84
2023-05-10T22:04:10.456Z,100637.53
2023-05-10T22:07:12.047Z,100647.66
2023-05-10T22:10:13.657Z,100641.34
2023-05-10T22:13:15.182Z,100650.00
2023-05-10T22:16:16.840Z,100641.13
2023-05-10T22:19:18.507Z,100645.47
2023-05-10T22:22:20.140Z,100653.00
2023-05-10T22:25:21.896Z,100651.75
2023-05-10T22:28:23.469Z,100656.25
2023-05-10T22:31:25.069Z,100661.41
2023-05-10T22:34:26.778Z,100655.03
2023-05-10T22:37:28.316Z,100652.69
2023-05-10T22:40:29.891Z,100646.56
2023-05-10T22:43:31.511Z,100651.44
2023-05-10T22:46:33.126Z,100649.09
2023-05-10T22:49:35.009Z,100646.56
2023-05-10T22:52:38.874Z,100635.88
2023-05-10T22:55:40.994Z,100656.59
2023-05-10T22:58:42.796Z,100656.16
2023-05-10T23:01:44.398Z,100646.59
2023-05-10T23:04:46.015Z,100657.16
2023-05-10T23:07:52.933Z,100645.72
2023-05-10T23:10:54.473Z,100647.97
2023-05-10T23:13:56.028Z,100641.25
2023-05-10T23:16:57.732Z,100651.69
2023-05-10T23:19:59.323Z,100651.09
2023-05-10T23:23:00.913Z,100640.63
2023-05-10T23:26:04.233Z,100648.38
2023-05-10T23:29:05.940Z,100649.31
2023-05-10T23:32:07.570Z,100652.50
2023-05-10T23:35:09.414Z,100642.47
2023-05-10T23:38:11.038Z,100652.19
2023-05-10T23:41:12.633Z,100656.22
2023-05-10T23:44:14.204Z,100660.56
2023-05-10T23:47:15.994Z,100663.75
2023-05-10T23:50:17.863Z,100655.53
2023-05-10T23:53:19.632Z,100661.25
2023-05-10T23:56:22.144Z,100653.59
2023-05-10T23:59:23.732Z,100658.88
